Time;durP1;ratioP1;P1;durP2;ratioP2;P2;SDS_P1;SDS_P2;PMS_P1;PMS_P2;Temp;Humidity;BMP_temperature;BMP_pressure;BME280_temperature;BME280_humidity;BME280_pressure;Samples;Min_cycle;Max_cycle;Signal;HPM_P1;HPM_P2
2021/03/23 00:00:00;;;;;;;11.93;5.07;;;;;;;2.43;58.89;93202.09;2064739;69;20688;-78
2021/03/23 00:02:26;;;;;;;11.23;4.60;;;;;;;2.34;58.35;93202.56;2067904;69;20140;-78
2021/03/23 00:04:52;;;;;;;8.88;4.35;;;;;;;2.41;58.35;93198.34;2067950;69;20655;-77
2021/03/23 00:07:18;;;;;;;12.35;5.07;;;;;;;2.36;58.07;93205.53;2067925;69;20135;-79
2021/03/23 00:09:43;;;;;;;12.93;4.68;;;;;;;2.32;57.90;93201.63;2067702;69;20207;-77
2021/03/23 00:12:11;;;;;;;9.25;4.63;;;;;;;2.35;57.84;93206.09;2064633;69;20145;-78
2021/03/23 00:14:36;;;;;;;9.68;4.68;;;;;;;2.33;57.63;93211.44;2067893;69;20148;-78
2021/03/23 00:17:02;;;;;;;14.18;5.32;;;;;;;2.39;57.82;93201.69;2067860;69;20172;-78
2021/03/23 00:19:27;;;;;;;10.93;4.97;;;;;;;2.35;58.00;93206.09;2067908;69;20198;-79
2021/03/23 00:21:53;;;;;;;12.23;5.10;;;;;;;2.38;57.95;93202.94;2067904;69;20153;-79
2021/03/23 00:24:19;;;;;;;10.23;4.63;;;;;;;2.33;58.05;93206.63;2067565;69;20141;-78
2021/03/23 00:26:44;;;;;;;9.90;4.60;;;;;;;2.15;58.22;93211.13;2067970;69;20686;-78
2021/03/23 00:29:11;;;;;;;10.02;5.22;;;;;;;2.04;58.46;93205.88;2067645;69;20140;-77
2021/03/23 00:31:38;;;;;;;10.68;5.10;;;;;;;2.08;58.62;93205.53;2067506;69;20156;-78
2021/03/23 00:34:05;;;;;;;11.57;5.82;;;;;;;1.99;58.66;93199.16;2067922;69;20141;-77
2021/03/23 00:36:35;;;;;;;12.25;5.80;;;;;;;2.05;59.37;93199.00;2067702;69;20133;-76
2021/03/23 00:39:02;;;;;;;16.23;6.60;;;;;;;1.73;61.44;93200.03;2067652;69;21067;-78
2021/03/23 00:41:33;;;;;;;13.07;5.93;;;;;;;1.83;60.59;93197.53;2067741;69;20145;-76
2021/03/23 00:43:58;;;;;;;12.27;5.93;;;;;;;1.96;60.07;93200.22;2067525;69;20141;-77
2021/03/23 00:46:24;;;;;;;13.32;6.00;;;;;;;1.87;60.37;93197.94;2067384;69;20594;-77
2021/03/23 00:48:51;;;;;;;12.63;5.70;;;;;;;1.90;60.38;93193.34;2067625;69;20159;-77
2021/03/23 00:51:17;;;;;;;14.27;6.65;;;;;;;1.60;62.75;93191.03;2067645;69;20235;-78
2021/03/23 00:53:42;;;;;;;14.13;6.97;;;;;;;1.35;62.54;93185.81;2067543;69;20713;-80
2021/03/23 00:56:08;;;;;;;14.70;6.38;;;;;;;1.88;61.14;93190.34;2067613;69;20153;-75
2021/03/23 00:58:34;;;;;;;11.48;6.22;;;;;;;1.90;61.43;93190.56;2067864;69;20141;-77
2021/03/23 01:01:00;;;;;;;13.15;5.78;;;;;;;1.67;61.60;93188.34;2067753;69;20129;-76
2021/03/23 01:03:27;;;;;;;12.38;6.43;;;;;;;1.64;62.37;93191.44;2067661;69;20168;-79
2021/03/23 01:05:53;;;;;;;12.32;6.05;;;;;;;1.80;62.47;93190.31;2067682;69;20648;-78
2021/03/23 01:08:18;;;;;;;12.38;6.40;;;;;;;1.82;61.05;93196.03;2067645;69;20144;-79
2021/03/23 01:10:44;;;;;;;16.02;6.32;;;;;;;1.70;61.69;93187.25;2067876;69;20164;-78
2021/03/23 01:13:11;;;;;;;16.10;6.40;;;;;;;1.72;62.28;93189.50;2067631;69;20152;-78
2021/03/23 01:15:39;;;;;;;16.15;6.72;;;;;;;1.73;61.45;93193.75;2067511;69;20281;-79
2021/03/23 01:18:05;;;;;;;13.95;6.57;;;;;;;1.62;62.26;93191.25;2067584;69;20550;-79
2021/03/23 01:20:32;;;;;;;15.55;7.20;;;;;;;1.64;62.01;93191.44;2067638;69;20136;-78
2021/03/23 01:22:58;;;;;;;15.68;6.90;;;;;;;1.67;62.17;93195.91;2067504;69;20539;-79
2021/03/23 01:25:24;;;;;;;13.82;7.07;;;;;;;1.41;63.17;93194.00;2067539;69;20148;-78
2021/03/23 01:27:52;;;;;;;17.60;7.55;;;;;;;1.64;62.55;93189.41;2064257;69;20150;-79
2021/03/23 01:30:24;;;;;;;16.40;7.53;;;;;;;1.59;62.30;93187.50;2067701;69;20156;-78
2021/03/23 01:32:50;;;;;;;12.13;7.25;;;;;;;1.51;62.56;93187.47;2061748;69;20140;-78
2021/03/23 01:35:17;;;;;;;13.10;6.75;;;;;;;1.65;63.08;93188.16;2067597;69;20143;-79
2021/03/23 01:37:43;;;;;;;18.23;7.40;;;;;;;1.63;63.27;93189.97;2067536;69;20643;-78
2021/03/23 01:40:11;;;;;;;14.90;7.47;;;;;;;1.42;64.42;93187.94;2067607;69;20148;-79
2021/03/23 01:42:46;;;;;;;13.07;6.72;;;;;;;1.45;63.25;93186.09;2067537;69;20588;-79
2021/03/23 01:45:11;;;;;;;15.80;7.45;;;;;;;1.55;62.97;93178.03;2067773;69;20239;-82
2021/03/23 01:47:40;;;;;;;15.98;7.22;;;;;;;1.55;63.49;93189.13;2067537;69;20206;-81
2021/03/23 01:50:06;;;;;;;16.27;7.38;;;;;;;1.46;63.70;93191.09;2067637;69;20604;-82
2021/03/23 01:52:32;;;;;;;14.35;6.97;;;;;;;1.48;62.73;93188.53;2067384;69;20144;-81
2021/03/23 01:55:02;;;;;;;14.50;8.02;;;;;;;1.25;64.42;93182.00;2064398;69;20181;-80
2021/03/23 01:57:30;;;;;;;12.30;7.13;;;;;;;1.21;65.02;93176.78;2067558;69;20173;-81
2021/03/23 01:59:58;;;;;;;18.60;8.02;;;;;;;1.04;65.64;93183.97;2067460;69;20210;-79
2021/03/23 02:02:26;;;;;;;21.20;8.50;;;;;;;1.36;63.97;93189.31;2068194;69;20214;-79
2021/03/23 02:04:53;;;;;;;16.48;8.10;;;;;;;1.24;64.56;93178.50;2068235;69;20570;-80
2021/03/23 02:07:18;;;;;;;17.48;7.35;;;;;;;1.04;64.63;93181.94;2064792;69;20180;-79
2021/03/23 02:09:44;;;;;;;16.80;7.40;;;;;;;1.18;64.12;93169.53;2064637;69;20231;-79
2021/03/23 02:12:17;;;;;;;16.05;7.72;;;;;;;1.23;64.39;93187.34;2068222;69;20175;-80
2021/03/23 02:14:47;;;;;;;16.90;8.05;;;;;;;1.12;64.52;93182.06;2064819;69;20176;-79
2021/03/23 02:17:22;;;;;;;16.83;8.43;;;;;;;1.02;65.77;93181.75;2067845;69;20232;-81
2021/03/23 02:19:59;;;;;;;15.95;8.40;;;;;;;1.08;64.29;93187.19;2067866;69;20524;-80
2021/03/23 02:22:29;;;;;;;18.58;8.00;;;;;;;0.98;65.12;93190.41;2062088;69;20190;-81
2021/03/23 02:24:56;;;;;;;12.50;6.50;;;;;;;1.08;63.25;93187.91;2067936;69;20135;-79
2021/03/23 02:27:24;;;;;;;12.10;6.18;;;;;;;1.14;62.30;93188.53;2068127;69;20520;-81
2021/03/23 02:29:53;;;;;;;9.80;3.95;;;;;;;0.85;59.67;93189.69;2068322;69;20296;-80
2021/03/23 02:32:20;;;;;;;9.93;3.70;;;;;;;1.03;58.32;93194.34;2068326;69;20589;-78
2021/03/23 02:34:45;;;;;;;14.48;6.30;;;;;;;0.93;61.56;93187.75;2068343;69;20145;-79
2021/03/23 02:37:11;;;;;;;9.60;5.00;;;;;;;0.82;60.32;93194.25;2068298;69;20592;-79
2021/03/23 02:39:38;;;;;;;11.00;5.60;;;;;;;1.02;59.98;93195.63;2068189;69;20156;-80
2021/03/23 02:42:05;;;;;;;11.00;4.88;;;;;;;1.05;60.42;93193.78;2068361;69;20141;-79
2021/03/23 02:44:41;;;;;;;12.52;4.82;;;;;;;0.92;59.34;93195.31;2065151;69;20547;-78
2021/03/23 02:47:08;;;;;;;8.98;4.20;;;;;;;0.73;59.67;93201.00;2068521;69;20128;-79
2021/03/23 02:49:34;;;;;;;9.00;4.53;;;;;;;0.77;59.63;93206.22;2068351;69;20150;-78
2021/03/23 02:52:00;;;;;;;11.20;4.68;;;;;;;0.77;59.55;93198.63;2068532;69;20141;-80
2021/03/23 02:54:25;;;;;;;8.73;4.30;;;;;;;0.46;59.11;93205.81;2068246;69;20183;-79
2021/03/23 02:56:52;;;;;;;7.80;3.33;;;;;;;0.44;58.61;93200.06;2068560;69;20515;-78
2021/03/23 02:59:18;;;;;;;6.68;3.35;;;;;;;0.77;57.16;93203.44;2068776;69;20124;-78
2021/03/23 03:01:43;;;;;;;5.82;3.58;;;;;;;0.57;57.49;93207.63;2068347;69;20148;-80
2021/03/23 03:04:09;;;;;;;6.30;3.35;;;;;;;0.61;57.43;93208.06;2068306;69;20198;-79
2021/03/23 03:06:34;;;;;;;6.82;3.53;;;;;;;0.54;57.19;93217.00;2068334;69;20144;-79
2021/03/23 03:09:00;;;;;;;6.80;3.33;;;;;;;0.51;57.17;93218.06;2068222;69;20592;-79
2021/03/23 03:11:26;;;;;;;5.00;3.20;;;;;;;0.68;56.55;93212.19;2065145;69;20238;-79
2021/03/23 03:13:51;;;;;;;6.40;3.28;;;;;;;0.84;56.18;93221.47;2068494;69;20562;-79
2021/03/23 03:16:18;;;;;;;9.98;3.40;;;;;;;0.84;56.17;93219.44;2068348;69;20149;-78
2021/03/23 03:18:44;;;;;;;10.18;3.30;;;;;;;0.60;56.52;93219.69;2068324;69;20547;-79
2021/03/23 03:21:10;;;;;;;5.70;3.00;;;;;;;0.79;56.36;93211.22;2068296;69;20149;-79
2021/03/23 03:23:35;;;;;;;6.72;3.15;;;;;;;0.83;56.00;93217.94;2068217;69;20619;-78
2021/03/23 03:26:01;;;;;;;5.95;3.17;;;;;;;0.87;55.97;93220.38;2065000;69;20137;-79
2021/03/23 03:28:27;;;;;;;8.25;3.40;;;;;;;0.60;55.45;93214.88;2068443;69;20148;-80
2021/03/23 03:30:53;;;;;;;5.72;3.10;;;;;;;0.56;55.54;93214.44;2068328;69;20156;-79
2021/03/23 03:33:21;;;;;;;6.78;3.28;;;;;;;0.74;55.36;93212.84;2068566;69;20188;-78
2021/03/23 03:35:48;;;;;;;7.55;3.20;;;;;;;0.84;55.13;93219.44;2068533;69;20143;-78
2021/03/23 03:38:16;;;;;;;4.10;2.63;;;;;;;0.44;54.93;93215.94;2064736;69;20136;-79
2021/03/23 03:40:51;;;;;;;7.30;3.13;;;;;;;0.23;56.23;93218.59;2068349;69;20141;-79
2021/03/23 03:43:19;;;;;;;6.90;2.65;;;;;;;0.28;55.12;93214.97;2068351;69;20141;-79
2021/03/23 03:45:45;;;;;;;8.88;2.95;;;;;;;0.45;55.05;93215.38;2064949;69;20160;-79
2021/03/23 03:48:11;;;;;;;5.60;2.85;;;;;;;0.62;55.32;93217.09;2068186;69;20171;-78
2021/03/23 03:50:37;;;;;;;5.60;2.80;;;;;;;0.60;55.58;93211.38;2068344;69;20592;-78
2021/03/23 03:53:05;;;;;;;5.82;3.03;;;;;;;0.63;55.44;93224.13;2068218;69;20177;-78
2021/03/23 03:55:35;;;;;;;8.05;3.70;;;;;;;0.43;55.00;93223.50;2068341;69;20152;-79
2021/03/23 03:58:00;;;;;;;7.07;3.60;;;;;;;0.32;55.32;93222.94;2068180;69;20141;-80
2021/03/23 04:00:32;;;;;;;5.65;2.67;;;;;;;0.25;55.04;93216.78;2068159;69;20151;-79
2021/03/23 04:02:59;;;;;;;8.43;3.20;;;;;;;0.50;55.18;93213.78;2065021;69;20258;-80
2021/03/23 04:05:35;;;;;;;7.72;3.40;;;;;;;0.51;54.94;93212.53;2068217;69;20280;-79
2021/03/23 04:08:03;;;;;;;6.43;3.53;;;;;;;0.43;56.97;93211.69;2068048;69;20181;-79
2021/03/23 04:10:29;;;;;;;7.97;4.05;;;;;;;0.16;56.92;93219.22;2068107;69;20210;-79
2021/03/23 04:12:55;;;;;;;7.38;3.35;;;;;;;0.06;56.09;93220.91;2068191;69;20149;-78
2021/03/23 04:15:26;;;;;;;8.40;3.28;;;;;;;0.01;55.98;93219.00;2068263;69;20154;-81
2021/03/23 04:17:52;;;;;;;4.72;3.03;;;;;;;-0.01;55.45;93217.47;2068113;69;20161;-79
2021/03/23 04:20:18;;;;;;;8.85;4.50;;;;;;;-0.02;55.98;93223.56;2068141;69;20164;-80
2021/03/23 04:22:44;;;;;;;10.07;5.10;;;;;;;0.11;55.48;93225.59;2067846;69;20201;-80
2021/03/23 04:25:12;;;;;;;7.88;4.88;;;;;;;0.25;55.38;93218.81;2068177;69;20151;-81
2021/03/23 04:27:38;;;;;;;6.25;3.10;;;;;;;0.17;56.38;93215.91;2068420;69;20137;-79
2021/03/23 04:30:06;;;;;;;5.22;2.83;;;;;;;-0.01;57.61;93220.25;2069331;69;20556;-81
2021/03/23 04:32:32;;;;;;;5.93;3.30;;;;;;;0.01;56.23;93221.75;2064874;69;20172;-80
2021/03/23 04:34:57;;;;;;;3.83;2.85;;;;;;;-0.07;56.04;93230.69;2068336;69;20605;-80
2021/03/23 04:37:23;;;;;;;6.70;4.80;;;;;;;0.15;55.69;93217.72;2067958;69;20151;-79
2021/03/23 04:39:49;;;;;;;7.28;3.50;;;;;;;0.22;55.73;93228.91;2068039;69;20239;-81
2021/03/23 04:42:14;;;;;;;7.03;2.85;;;;;;;0.13;56.94;93231.34;2068105;69;20129;-80
2021/03/23 04:44:40;;;;;;;3.88;2.45;;;;;;;0.13;56.20;93229.31;2068178;69;20596;-80
2021/03/23 04:47:06;;;;;;;4.50;2.80;;;;;;;0.06;56.08;93229.22;2068347;69;20148;-79
2021/03/23 04:49:32;;;;;;;5.50;3.00;;;;;;;-0.05;56.24;93232.91;2068097;69;20585;-80
2021/03/23 04:51:58;;;;;;;6.32;3.33;;;;;;;-0.05;56.52;93236.41;2068086;69;20166;-80
2021/03/23 04:54:24;;;;;;;7.05;3.65;;;;;;;-0.06;57.29;93237.69;2068102;69;20136;-79
2021/03/23 04:56:50;;;;;;;5.43;3.22;;;;;;;-0.10;57.27;93234.50;2068393;69;20516;-80
2021/03/23 04:59:15;;;;;;;7.40;3.40;;;;;;;-0.04;56.82;93242.72;2068157;69;20147;-79
2021/03/23 05:01:42;;;;;;;5.22;3.00;;;;;;;-0.04;56.50;93245.50;2064695;69;20196;-80
2021/03/23 05:04:14;;;;;;;6.45;3.00;;;;;;;-0.10;57.79;93247.59;2067989;69;20239;-80
2021/03/23 05:06:39;;;;;;;6.20;3.03;;;;;;;-0.13;58.20;93249.41;2068303;69;20615;-81
2021/03/23 05:09:05;;;;;;;7.75;2.97;;;;;;;-0.22;58.28;93257.38;2067901;69;20160;-80
2021/03/23 05:11:32;;;;;;;7.57;2.92;;;;;;;-0.22;59.03;93258.09;2068098;69;20167;-81
2021/03/23 05:13:59;;;;;;;6.93;2.92;;;;;;;-0.06;58.78;93259.84;2064696;69;20148;-80
2021/03/23 05:16:24;;;;;;;8.18;2.90;;;;;;;-0.17;58.61;93262.81;2067952;69;20589;-79
2021/03/23 05:18:50;;;;;;;5.22;2.90;;;;;;;-0.10;59.02;93267.72;2065179;69;20139;-80
2021/03/23 05:21:17;;;;;;;8.82;3.08;;;;;;;-0.12;59.00;93269.53;2067998;69;20139;-81
2021/03/23 05:23:43;;;;;;;7.28;3.50;;;;;;;-0.35;58.41;93261.56;2067917;69;20180;-79
2021/03/23 05:26:09;;;;;;;6.78;3.15;;;;;;;-0.31;58.08;93264.78;2068015;69;20244;-79
2021/03/23 05:28:35;;;;;;;11.50;3.22;;;;;;;-0.23;58.28;93267.66;2068271;69;20133;-81
2021/03/23 05:31:01;;;;;;;6.03;3.20;;;;;;;-0.26;56.79;93275.00;2068400;69;20176;-81
2021/03/23 05:33:29;;;;;;;5.47;3.10;;;;;;;-0.23;56.67;93283.53;2068212;69;20148;-81
2021/03/23 05:35:57;;;;;;;8.70;3.05;;;;;;;-0.28;56.63;93288.63;2068468;69;20279;-80
2021/03/23 05:38:27;;;;;;;5.50;3.08;;;;;;;-0.19;56.60;93293.00;2067738;69;20154;-80
2021/03/23 05:41:07;;;;;;;5.72;3.10;;;;;;;-0.20;56.04;93290.78;2067988;69;20160;-80
2021/03/23 05:44:10;;;;;;;4.65;2.65;;;;;;;-0.29;55.05;93289.16;2068064;69;20160;-82
2021/03/23 05:46:39;;;;;;;7.63;2.90;;;;;;;-0.34;54.97;93290.72;2068096;69;20185;-80
2021/03/23 05:49:10;;;;;;;5.45;3.03;;;;;;;-0.31;55.54;93284.16;2068145;69;20153;-80
2021/03/23 05:51:52;;;;;;;6.63;3.25;;;;;;;-0.14;54.67;93294.94;2068054;69;20524;-80
2021/03/23 05:54:40;;;;;;;8.45;2.70;;;;;;;-0.10;55.78;93289.09;2067868;69;20132;-81
2021/03/23 05:57:37;;;;;;;7.30;2.70;;;;;;;-0.12;56.01;93286.13;2067944;69;20168;-80
2021/03/23 06:00:14;;;;;;;5.10;2.50;;;;;;;-0.14;55.71;93288.66;2068654;69;20169;-80
2021/03/23 06:02:51;;;;;;;4.32;2.72;;;;;;;-0.14;55.79;93297.72;2064583;69;20133;-79
2021/03/23 06:05:27;;;;;;;7.00;3.03;;;;;;;-0.13;56.27;93298.47;2067888;69;20141;-80
2021/03/23 06:07:54;;;;;;;7.22;3.60;;;;;;;-0.08;55.18;93300.41;2068018;69;20547;-80
2021/03/23 06:10:22;;;;;;;5.72;3.40;;;;;;;-0.09;54.65;93301.66;2067945;69;20524;-80
2021/03/23 06:13:06;;;;;;;8.40;2.80;;;;;;;-0.09;56.29;93304.44;2067819;69;20152;-80
2021/03/23 06:15:31;;;;;;;5.70;2.90;;;;;;;-0.04;57.55;93309.91;2067970;69;20157;-80
2021/03/23 06:18:18;;;;;;;5.03;2.47;;;;;;;0.07;56.93;93311.75;2067805;69;20241;-80
2021/03/23 06:20:54;;;;;;;5.05;2.72;;;;;;;-0.03;56.75;93319.69;2067837;69;20144;-79
2021/03/23 06:23:26;;;;;;;5.90;2.58;;;;;;;0.00;55.97;93326.22;2067965;69;20301;-82
2021/03/23 06:25:56;;;;;;;6.25;2.97;;;;;;;-0.02;56.71;93323.94;2068389;69;20137;-81
2021/03/23 06:28:53;;;;;;;7.78;3.50;;;;;;;-0.23;57.27;93325.03;2067864;69;20148;-80
2021/03/23 06:31:34;;;;;;;9.07;4.38;;;;;;;-0.14;55.82;93335.72;2067846;69;20133;-82
2021/03/23 06:34:00;;;;;;;12.57;3.75;;;;;;;-0.01;54.98;93338.53;2067767;69;20157;-80
2021/03/23 06:36:29;;;;;;;6.28;3.20;;;;;;;0.30;54.80;93339.06;2067701;69;20153;-80
2021/03/23 06:38:56;;;;;;;7.43;3.28;;;;;;;0.24;54.76;93336.41;2067520;69;20143;-80
2021/03/23 06:41:26;;;;;;;7.90;3.65;;;;;;;0.15;53.73;93339.56;2067775;69;20137;-81
2021/03/23 06:43:56;;;;;;;10.23;6.22;;;;;;;0.11;53.51;93344.66;2064473;69;20220;-80
2021/03/23 06:46:28;;;;;;;20.08;10.63;;;;;;;0.04;53.97;93343.25;2068277;69;20242;-81
2021/03/23 06:49:15;;;;;;;12.80;6.13;;;;;;;0.18;54.93;93346.81;2068281;69;20255;-81
2021/03/23 06:51:53;;;;;;;8.15;4.10;;;;;;;0.20;56.02;93349.81;2066906;69;20670;-82
2021/03/23 06:54:23;;;;;;;12.02;4.95;;;;;;;0.46;54.42;93358.19;2068147;69;20144;-81
2021/03/23 06:57:00;;;;;;;6.45;3.80;;;;;;;0.55;53.10;93362.59;2064945;69;20160;-81
2021/03/23 06:59:26;;;;;;;9.77;4.53;;;;;;;0.34;53.19;93361.66;2068422;69;20215;-79
2021/03/23 07:02:01;;;;;;;8.50;4.50;;;;;;;0.32;52.80;93358.66;2068361;69;20198;-79
2021/03/23 07:04:41;;;;;;;9.30;5.00;;;;;;;0.32;52.94;93364.97;2064926;69;20298;-76
2021/03/23 07:07:19;;;;;;;10.73;3.95;;;;;;;0.55;53.03;93362.59;2068259;69;20149;-75
2021/03/23 07:09:59;;;;;;;20.25;7.80;;;;;;;0.41;53.17;93361.03;2064858;69;20615;-75
2021/03/23 07:12:38;;;;;;;20.90;9.82;;;;;;;0.44;53.44;93363.50;2068305;69;20627;-75
2021/03/23 07:15:23;;;;;;;15.93;6.93;;;;;;;0.72;52.56;93362.28;2068204;69;20177;-79
2021/03/23 07:18:11;;;;;;;10.70;5.72;;;;;;;1.09;51.76;93358.56;2068268;69;20228;-76
2021/03/23 07:20:48;;;;;;;9.00;5.22;;;;;;;1.16;51.95;93359.97;2064870;69;20228;-75
2021/03/23 07:23:32;;;;;;;8.80;4.30;;;;;;;1.18;51.60;93358.13;2068092;69;20532;-75
2021/03/23 07:26:26;;;;;;;9.95;4.30;;;;;;;1.19;51.86;93362.41;2068336;69;20224;-79
2021/03/23 07:29:16;;;;;;;8.00;4.40;;;;;;;1.23;52.84;93364.84;2068774;69;20128;-75
2021/03/23 07:32:20;;;;;;;7.15;3.85;;;;;;;1.58;53.02;93360.13;2066351;69;20294;-75
2021/03/23 07:35:09;;;;;;;5.38;3.22;;;;;;;2.10;50.70;93350.16;2060201;69;20140;-74
2021/03/23 07:37:41;;;;;;;8.93;4.72;;;;;;;2.37;52.61;93356.34;2068356;69;20149;-77
2021/03/23 07:40:32;;;;;;;9.13;4.10;;;;;;;2.44;50.24;93364.00;2068208;69;20153;-75
2021/03/23 07:43:30;;;;;;;13.00;4.60;;;;;;;1.85;50.07;93358.03;2068283;69;20148;-75
2021/03/23 07:46:03;;;;;;;12.63;4.15;;;;;;;2.20;48.64;93357.50;2062708;69;20154;-76
2021/03/23 07:48:53;;;;;;;11.10;4.68;;;;;;;2.10;49.23;93361.25;2068178;69;20589;-75
2021/03/23 07:51:28;;;;;;;11.23;4.80;;;;;;;2.10;48.54;93356.44;2068141;69;20140;-75
2021/03/23 07:54:03;;;;;;;7.30;3.60;;;;;;;2.67;47.13;93364.97;2068029;69;20164;-75
2021/03/23 07:56:51;;;;;;;5.85;4.00;;;;;;;2.74;46.38;93367.03;2068129;69;20135;-75
2021/03/23 07:59:47;;;;;;;8.63;3.85;;;;;;;2.96;47.62;93362.19;2068022;69;20151;-75
2021/03/23 08:02:15;;;;;;;12.20;5.20;;;;;;;3.48;46.56;93365.84;2068265;69;20571;-75
2021/03/23 08:05:01;;;;;;;13.43;5.65;;;;;;;4.10;47.04;93364.81;2068016;69;20140;-78
2021/03/23 08:08:03;;;;;;;12.90;5.63;;;;;;;4.47;45.27;93368.25;2067827;69;20222;-74
2021/03/23 08:10:58;;;;;;;8.68;4.82;;;;;;;4.92;44.76;93369.59;2067356;69;20765;-78
2021/03/23 08:13:42;;;;;;;13.07;4.78;;;;;;;4.23;45.04;93364.69;2064688;69;20624;-76
2021/03/23 08:16:12;;;;;;;9.50;4.75;;;;;;;4.23;45.71;93364.69;2068138;69;20687;-74
2021/03/23 08:18:59;;;;;;;9.10;4.35;;;;;;;4.60;45.91;93362.50;2068025;69;20148;-79
2021/03/23 08:21:43;;;;;;;10.82;3.70;;;;;;;5.33;43.23;93371.97;2068037;69;20524;-78
2021/03/23 08:24:37;;;;;;;6.28;3.60;;;;;;;5.06;42.96;93368.84;2067899;69;20187;-74
2021/03/23 08:27:20;;;;;;;9.82;4.40;;;;;;;6.27;42.23;93363.50;2068007;69;20148;-75
2021/03/23 08:30:05;;;;;;;7.65;3.88;;;;;;;6.75;40.58;93365.47;2068129;69;20152;-79
2021/03/23 08:33:16;;;;;;;6.50;2.83;;;;;;;7.46;38.10;93365.06;2067956;69;20195;-77
2021/03/23 08:36:21;;;;;;;7.13;3.17;;;;;;;7.55;38.69;93364.41;2066796;69;20151;-79
2021/03/23 08:38:55;;;;;;;9.77;2.42;;;;;;;6.22;38.48;93356.06;2067785;69;20199;-76
2021/03/23 08:41:37;;;;;;;8.27;2.95;;;;;;;6.61;39.07;93356.59;2064720;69;20151;-80
2021/03/23 08:44:05;;;;;;;5.68;2.97;;;;;;;7.45;36.12;93363.56;2068106;69;20592;-77
2021/03/23 08:46:35;;;;;;;10.82;4.95;;;;;;;8.65;38.69;93362.00;2067983;69;20160;-78
2021/03/23 08:49:05;;;;;;;11.23;5.35;;;;;;;8.94;35.25;93369.84;2067993;69;20187;-78
2021/03/23 08:51:33;;;;;;;7.38;3.47;;;;;;;8.44;37.29;93362.47;2067992;69;20148;-76
2021/03/23 08:54:07;;;;;;;5.18;2.95;;;;;;;9.32;34.01;93366.41;2067913;69;20164;-75
2021/03/23 08:56:42;;;;;;;6.43;2.85;;;;;;;8.92;34.48;93361.97;2068055;69;20251;-84
2021/03/23 08:59:36;;;;;;;8.77;3.20;;;;;;;9.36;35.08;93372.34;2067961;69;20528;-75
2021/03/23 09:02:22;;;;;;;;;;;;;;;9.35;32.93;93360.38;2068273;69;20162;-73
2021/03/23 09:04:50;;;;;;;4.47;2.40;;;;;;;8.71;33.72;93365.28;2067984;69;20474;-75
2021/03/23 09:07:15;;;;;;;5.57;2.58;;;;;;;11.03;32.44;93356.31;2068118;69;20243;-73
2021/03/23 09:09:43;;;;;;;7.63;2.80;;;;;;;11.00;30.91;93351.16;2067749;69;20505;-80
2021/03/23 09:12:34;;;;;;;6.10;2.50;;;;;;;9.33;31.27;93356.66;2067961;69;20137;-74
2021/03/23 09:15:16;;;;;;;3.67;2.30;;;;;;;9.08;31.86;93359.69;2067969;69;20152;-75
2021/03/23 09:17:54;;;;;;;4.22;2.35;;;;;;;10.98;30.55;93354.53;2068052;69;20204;-75
2021/03/23 09:20:36;;;;;;;3.30;2.13;;;;;;;11.82;30.79;93352.53;2067957;69;20145;-75
2021/03/23 09:23:37;;;;;;;4.03;1.98;;;;;;;10.35;28.71;93352.91;2067746;69;20136;-76
2021/03/23 09:26:31;;;;;;;2.85;1.77;;;;;;;10.45;29.74;93342.41;2064869;69;20610;-79
2021/03/23 09:29:25;;;;;;;7.32;1.83;;;;;;;12.14;27.51;93344.69;2067998;69;20144;-78
2021/03/23 09:31:50;;;;;;;4.60;2.25;;;;;;;12.21;27.44;93340.94;2068066;69;20563;-74
2021/03/23 09:34:53;;;;;;;3.83;2.00;;;;;;;12.36;28.56;93346.16;2068073;69;20148;-76
2021/03/23 09:37:32;;;;;;;2.53;1.80;;;;;;;14.34;25.38;93340.41;2068092;69;20140;-74
2021/03/23 09:39:58;;;;;;;2.95;1.90;;;;;;;15.73;24.49;93335.28;2067857;69;20149;-76
2021/03/23 09:42:35;;;;;;;2.58;1.65;;;;;;;15.61;23.47;93345.22;2068100;69;20256;-75
2021/03/23 09:45:24;;;;;;;2.40;1.45;;;;;;;13.07;24.86;93337.84;2067889;69;20144;-75
2021/03/23 09:48:11;;;;;;;3.47;1.60;;;;;;;14.94;24.56;93337.44;2059916;69;20172;-75
2021/03/23 09:51:01;;;;;;;2.60;1.70;;;;;;;12.61;25.83;93330.78;2067973;69;20588;-73
2021/03/23 09:53:35;;;;;;;3.92;1.52;;;;;;;15.09;23.88;93338.22;2067755;69;20153;-74
2021/03/23 09:56:14;;;;;;;3.03;1.85;;;;;;;13.84;23.99;93325.56;2067843;69;20141;-77
2021/03/23 09:58:41;;;;;;;3.00;1.65;;;;;;;12.97;25.07;93329.50;2067826;69;20148;-77
2021/03/23 10:01:11;;;;;;;2.75;1.50;;;;;;;15.38;23.57;93324.19;2067797;69;20144;-74
2021/03/23 10:03:38;;;;;;;3.00;1.60;;;;;;;15.60;22.52;93321.78;2067856;69;20136;-72
2021/03/23 10:06:07;;;;;;;2.88;1.60;;;;;;;14.09;24.05;93316.38;2067793;69;20161;-73
2021/03/23 10:08:35;;;;;;;2.88;1.60;;;;;;;12.45;24.68;93316.34;2067702;69;20192;-73
2021/03/23 10:11:14;;;;;;;2.40;1.60;;;;;;;13.03;24.86;93307.25;2067875;69;20144;-73
2021/03/23 10:13:56;;;;;;;3.08;2.03;;;;;;;12.07;25.88;93301.25;2067802;69;20267;-74
2021/03/23 10:16:25;;;;;;;2.88;1.70;;;;;;;13.48;24.11;93307.88;2067863;69;20207;-72
2021/03/23 10:18:51;;;;;;;8.80;6.32;;;;;;;14.01;23.93;93295.34;2067864;69;20226;-73
2021/03/23 10:21:17;;;;;;;3.83;2.10;;;;;;;14.47;23.61;93300.09;2068000;69;20152;-73
2021/03/23 10:23:45;;;;;;;2.95;1.80;;;;;;;16.42;22.37;93300.34;2064858;69;20156;-73
2021/03/23 10:26:11;;;;;;;5.28;1.75;;;;;;;15.73;21.51;93298.38;2068281;69;20501;-73
2021/03/23 10:28:47;;;;;;;1.90;1.40;;;;;;;14.77;22.94;93289.72;2068259;69;20140;-73
2021/03/23 10:31:29;;;;;;;2.50;1.65;;;;;;;15.86;23.28;93281.97;2068321;69;20244;-75
2021/03/23 10:34:14;;;;;;;2.40;1.65;;;;;;;15.97;22.63;93281.84;2068287;69;20149;-75
2021/03/23 10:37:01;;;;;;;2.92;1.50;;;;;;;16.42;21.76;93284.03;2068349;69;20192;-74
2021/03/23 10:39:37;;;;;;;3.00;2.13;;;;;;;17.64;22.16;93276.81;2068094;69;20156;-74
2021/03/23 10:42:26;;;;;;;6.55;3.20;;;;;;;17.28;20.62;93285.22;2068391;69;20145;-75
2021/03/23 10:45:14;;;;;;;2.40;1.50;;;;;;;16.84;20.82;93278.94;2068265;69;20160;-74
2021/03/23 10:47:45;;;;;;;2.90;1.80;;;;;;;17.84;19.65;93282.69;2068241;69;20183;-76
2021/03/23 10:50:21;;;;;;;5.30;2.83;;;;;;;20.77;18.15;93285.22;2068282;69;20173;-75
2021/03/23 10:52:49;;;;;;;9.18;8.48;;;;;;;20.94;17.28;93280.03;2068120;69;20137;-74
2021/03/23 10:55:23;;;;;;;9.50;6.00;;;;;;;21.29;17.29;93278.94;2068268;69;20203;-74
2021/03/23 10:57:49;;;;;;;4.07;3.70;;;;;;;23.49;16.57;93293.34;2068230;69;20159;-74
2021/03/23 11:00:16;;;;;;;18.15;16.95;;;;;;;21.37;17.08;93284.94;2068329;69;20149;-73
2021/03/23 11:02:41;;;;;;;4.18;3.75;;;;;;;20.24;17.80;93276.97;2068344;69;20145;-77
2021/03/23 11:05:09;;;;;;;4.00;3.60;;;;;;;22.78;15.42;93283.06;2068329;69;20136;-73
2021/03/23 11:07:38;;;;;;;5.03;4.70;;;;;;;26.77;13.99;93283.47;2064777;69;20530;-73
2021/03/23 11:10:07;;;;;;;9.60;8.90;;;;;;;24.41;14.86;93280.13;2068257;69;20265;-73
2021/03/23 11:12:34;;;;;;;6.68;6.28;;;;;;;23.14;14.88;93271.75;2068189;69;20596;-74
2021/03/23 11:15:00;;;;;;;3.45;2.55;;;;;;;24.02;14.14;93277.22;2068188;69;20152;-72
2021/03/23 11:17:27;;;;;;;4.18;1.92;;;;;;;29.00;13.17;93279.63;2068121;69;20137;-73
2021/03/23 11:20:00;;;;;;;4.65;4.25;;;;;;;26.65;12.62;93268.91;2068208;69;20184;-73
2021/03/23 11:22:31;;;;;;;;;;;;;;;28.80;12.47;93268.72;2068220;69;20137;-73
2021/03/23 11:24:57;;;;;;;2.30;1.73;;;;;;;31.84;12.09;93264.59;2068126;69;20135;-73
2021/03/23 11:27:26;;;;;;;2.80;1.80;;;;;;;27.33;12.74;93262.28;2068198;69;20159;-73
2021/03/23 11:29:53;;;;;;;3.05;2.83;;;;;;;27.33;12.58;93253.59;2064860;69;20228;-74
2021/03/23 11:32:19;;;;;;;3.35;3.05;;;;;;;29.82;11.39;93262.16;2068125;69;20153;-73
2021/03/23 11:34:45;;;;;;;2.72;2.53;;;;;;;27.56;12.78;93245.06;2068167;69;20152;-73
2021/03/23 11:37:11;;;;;;;2.50;2.25;;;;;;;27.94;11.97;93253.22;2064992;69;20149;-74
2021/03/23 11:39:36;;;;;;;4.90;4.53;;;;;;;26.29;13.77;93243.25;2068050;69;20519;-74
2021/03/23 11:42:17;;;;;;;4.68;3.10;;;;;;;30.09;11.64;93249.00;2068150;69;20176;-73
2021/03/23 11:44:47;;;;;;;2.90;2.67;;;;;;;29.59;11.94;93236.09;2067776;69;20143;-73
2021/03/23 11:47:23;;;;;;;4.65;4.35;;;;;;;31.38;10.00;93239.53;2061012;69;20193;-73
2021/03/23 11:50:04;;;;;;;4.45;3.20;;;;;;;32.64;10.55;93240.31;2060496;69;20680;-73
2021/03/23 11:52:30;;;;;;;3.38;2.30;;;;;;;33.12;9.71;93235.97;2060704;69;20215;-73
2021/03/23 11:54:57;;;;;;;4.03;3.65;;;;;;;28.08;11.63;93233.03;2060822;69;20504;-73
2021/03/23 11:57:24;;;;;;;3.88;1.80;;;;;;;30.13;11.00;93233.75;2060761;69;21009;-73
2021/03/23 11:59:49;;;;;;;3.72;1.70;;;;;;;32.12;11.02;93236.63;2060843;69;20180;-71